sensor_id;sensor_type;location;lat;lon;timestamp;P1;durP1;ratioP1;P2;durP2;ratioP2
48042;SDS011;33988;47.992;8.820;2023-07-09T00:02:02;3.97;;;2.80;;
48042;SDS011;33988;47.992;8.820;2023-07-09T00:04:29;3.03;;;2.53;;
48042;SDS011;33988;47.992;8.820;2023-07-09T00:06:57;3.38;;;2.38;;
48042;SDS011;33988;47.992;8.820;2023-07-09T00:09:29;4.75;;;3.15;;
48042;SDS011;33988;47.992;8.820;2023-07-09T00:11:57;3.95;;;2.50;;
48042;SDS011;33988;47.992;8.820;2023-07-09T00:14:24;4.43;;;2.63;;
48042;SDS011;33988;47.992;8.820;2023-07-09T00:16:51;3.53;;;2.67;;
48042;SDS011;33988;47.992;8.820;2023-07-09T00:19:19;4.50;;;2.42;;
48042;SDS011;33988;47.992;8.820;2023-07-09T00:21:50;2.78;;;2.47;;
48042;SDS011;33988;47.992;8.820;2023-07-09T00:24:20;4.65;;;2.53;;
48042;SDS011;33988;47.992;8.820;2023-07-09T00:26:48;6.50;;;2.97;;
48042;SDS011;33988;47.992;8.820;2023-07-09T00:29:17;3.85;;;2.50;;
48042;SDS011;33988;47.992;8.820;2023-07-09T00:31:49;3.42;;;2.58;;
48042;SDS011;33988;47.992;8.820;2023-07-09T00:34:16;4.20;;;2.85;;
48042;SDS011;33988;47.992;8.820;2023-07-09T00:36:48;4.10;;;2.70;;
48042;SDS011;33988;47.992;8.820;2023-07-09T00:39:17;5.40;;;2.50;;
48042;SDS011;33988;47.992;8.820;2023-07-09T00:41:47;2.70;;;2.47;;
48042;SDS011;33988;47.992;8.820;2023-07-09T00:49:39;4.00;;;2.63;;
48042;SDS011;33988;47.992;8.820;2023-07-09T00:52:33;3.03;;;2.53;;
48042;SDS011;33988;47.992;8.820;2023-07-09T00:55:12;4.13;;;2.58;;
48042;SDS011;33988;47.992;8.820;2023-07-09T00:57:45;3.75;;;2.70;;
48042;SDS011;33988;47.992;8.820;2023-07-09T01:00:23;4.80;;;2.70;;
48042;SDS011;33988;47.992;8.820;2023-07-09T01:03:27;6.25;;;3.00;;
48042;SDS011;33988;47.992;8.820;2023-07-09T01:05:57;4.15;;;3.03;;
48042;SDS011;33988;47.992;8.820;2023-07-09T01:08:28;3.47;;;2.67;;
48042;SDS011;33988;47.992;8.820;2023-07-09T01:11:01;4.28;;;2.65;;
48042;SDS011;33988;47.992;8.820;2023-07-09T01:13:34;2.90;;;2.55;;
48042;SDS011;33988;47.992;8.820;2023-07-09T01:16:02;3.72;;;2.72;;
48042;SDS011;33988;47.992;8.820;2023-07-09T01:18:37;3.97;;;2.67;;
48042;SDS011;33988;47.992;8.820;2023-07-09T01:21:11;4.00;;;2.70;;
48042;SDS011;33988;47.992;8.820;2023-07-09T01:23:45;6.65;;;2.80;;
48042;SDS011;33988;47.992;8.820;2023-07-09T01:26:18;3.47;;;2.90;;
48042;SDS011;33988;47.992;8.820;2023-07-09T01:28:51;3.78;;;2.90;;
48042;SDS011;33988;47.992;8.820;2023-07-09T01:31:20;5.13;;;2.97;;
48042;SDS011;33988;47.992;8.820;2023-07-09T01:33:48;4.18;;;3.10;;
48042;SDS011;33988;47.992;8.820;2023-07-09T01:36:18;3.45;;;2.65;;
48042;SDS011;33988;47.992;8.820;2023-07-09T01:38:51;4.10;;;2.65;;
48042;SDS011;33988;47.992;8.820;2023-07-09T01:41:19;4.65;;;2.45;;
48042;SDS011;33988;47.992;8.820;2023-07-09T01:43:49;4.22;;;2.42;;
48042;SDS011;33988;47.992;8.820;2023-07-09T01:46:19;4.07;;;3.10;;
48042;SDS011;33988;47.992;8.820;2023-07-09T01:48:47;3.63;;;2.38;;
48042;SDS011;33988;47.992;8.820;2023-07-09T01:51:16;3.25;;;2.60;;
48042;SDS011;33988;47.992;8.820;2023-07-09T01:53:43;3.20;;;2.45;;
48042;SDS011;33988;47.992;8.820;2023-07-09T01:56:15;3.45;;;2.90;;
48042;SDS011;33988;47.992;8.820;2023-07-09T01:58:42;4.00;;;2.88;;
48042;SDS011;33988;47.992;8.820;2023-07-09T02:01:11;4.55;;;2.90;;
48042;SDS011;33988;47.992;8.820;2023-07-09T02:03:41;3.05;;;2.47;;
48042;SDS011;33988;47.992;8.820;2023-07-09T02:06:08;5.45;;;2.63;;
48042;SDS011;33988;47.992;8.820;2023-07-09T02:08:38;4.70;;;2.58;;
48042;SDS011;33988;47.992;8.820;2023-07-09T02:11:05;3.42;;;2.85;;
48042;SDS011;33988;47.992;8.820;2023-07-09T02:13:32;4.95;;;3.00;;
48042;SDS011;33988;47.992;8.820;2023-07-09T02:16:01;3.38;;;2.65;;
48042;SDS011;33988;47.992;8.820;2023-07-09T02:18:29;3.17;;;2.65;;
48042;SDS011;33988;47.992;8.820;2023-07-09T02:20:59;4.78;;;2.75;;
48042;SDS011;33988;47.992;8.820;2023-07-09T02:23:27;6.60;;;2.88;;
48042;SDS011;33988;47.992;8.820;2023-07-09T02:25:56;4.43;;;2.85;;
48042;SDS011;33988;47.992;8.820;2023-07-09T02:28:25;3.25;;;2.55;;
48042;SDS011;33988;47.992;8.820;2023-07-09T02:30:52;3.38;;;2.50;;
48042;SDS011;33988;47.992;8.820;2023-07-09T02:33:22;4.13;;;2.35;;
48042;SDS011;33988;47.992;8.820;2023-07-09T02:35:52;2.88;;;2.45;;
48042;SDS011;33988;47.992;8.820;2023-07-09T02:38:19;3.80;;;2.72;;
48042;SDS011;33988;47.992;8.820;2023-07-09T02:40:48;5.00;;;2.80;;
48042;SDS011;33988;47.992;8.820;2023-07-09T02:43:14;3.28;;;2.67;;
48042;SDS011;33988;47.992;8.820;2023-07-09T02:45:43;5.97;;;2.97;;
48042;SDS011;33988;47.992;8.820;2023-07-09T02:48:10;3.88;;;2.75;;
48042;SDS011;33988;47.992;8.820;2023-07-09T02:50:37;5.05;;;2.83;;
48042;SDS011;33988;47.992;8.820;2023-07-09T02:53:04;4.35;;;2.92;;
48042;SDS011;33988;47.992;8.820;2023-07-09T02:55:36;6.28;;;2.70;;
48042;SDS011;33988;47.992;8.820;2023-07-09T02:58:03;3.28;;;2.92;;
48042;SDS011;33988;47.992;8.820;2023-07-09T03:00:30;3.30;;;2.78;;
48042;SDS011;33988;47.992;8.820;2023-07-09T03:02:57;3.38;;;2.92;;
48042;SDS011;33988;47.992;8.820;2023-07-09T03:05:29;4.93;;;2.60;;
48042;SDS011;33988;47.992;8.820;2023-07-09T03:07:56;3.78;;;2.75;;
48042;SDS011;33988;47.992;8.820;2023-07-09T03:10:22;3.83;;;2.90;;
48042;SDS011;33988;47.992;8.820;2023-07-09T03:12:54;3.78;;;2.97;;
48042;SDS011;33988;47.992;8.820;2023-07-09T03:15:23;4.30;;;2.67;;
48042;SDS011;33988;47.992;8.820;2023-07-09T03:17:52;4.03;;;2.63;;
48042;SDS011;33988;47.992;8.820;2023-07-09T03:20:22;3.78;;;2.60;;
48042;SDS011;33988;47.992;8.820;2023-07-09T03:22:49;5.10;;;2.95;;
48042;SDS011;33988;47.992;8.820;2023-07-09T03:25:18;3.28;;;2.38;;
48042;SDS011;33988;47.992;8.820;2023-07-09T03:27:48;3.17;;;2.67;;
48042;SDS011;33988;47.992;8.820;2023-07-09T03:30:19;4.38;;;2.50;;
48042;SDS011;33988;47.992;8.820;2023-07-09T03:32:48;2.75;;;2.45;;
48042;SDS011;33988;47.992;8.820;2023-07-09T03:35:18;3.85;;;2.63;;
48042;SDS011;33988;47.992;8.820;2023-07-09T03:37:47;5.70;;;2.65;;
48042;SDS011;33988;47.992;8.820;2023-07-09T03:40:20;3.72;;;2.60;;
48042;SDS011;33988;47.992;8.820;2023-07-09T03:42:52;4.00;;;2.72;;
48042;SDS011;33988;47.992;8.820;2023-07-09T03:45:19;3.42;;;2.80;;
48042;SDS011;33988;47.992;8.820;2023-07-09T03:47:46;3.83;;;2.70;;
48042;SDS011;33988;47.992;8.820;2023-07-09T03:50:16;3.03;;;2.50;;
48042;SDS011;33988;47.992;8.820;2023-07-09T03:52:43;3.25;;;2.65;;
48042;SDS011;33988;47.992;8.820;2023-07-09T03:55:12;3.28;;;2.80;;
48042;SDS011;33988;47.992;8.820;2023-07-09T03:57:41;3.72;;;2.50;;
48042;SDS011;33988;47.992;8.820;2023-07-09T04:00:08;7.05;;;3.05;;
48042;SDS011;33988;47.992;8.820;2023-07-09T04:02:41;2.90;;;2.30;;
48042;SDS011;33988;47.992;8.820;2023-07-09T04:05:10;3.03;;;2.33;;
48042;SDS011;33988;47.992;8.820;2023-07-09T04:07:40;6.40;;;3.17;;
48042;SDS011;33988;47.992;8.820;2023-07-09T04:10:10;4.38;;;2.90;;
48042;SDS011;33988;47.992;8.820;2023-07-09T04:12:37;3.63;;;2.70;;
48042;SDS011;33988;47.992;8.820;2023-07-09T04:15:04;3.72;;;2.72;;
48042;SDS011;33988;47.992;8.820;2023-07-09T04:20:02;4.88;;;2.35;;
48042;SDS011;33988;47.992;8.820;2023-07-09T04:22:33;2.97;;;2.38;;
48042;SDS011;33988;47.992;8.820;2023-07-09T04:25:01;3.10;;;2.53;;
48042;SDS011;33988;47.992;8.820;2023-07-09T04:27:30;3.97;;;2.50;;
48042;SDS011;33988;47.992;8.820;2023-07-09T04:29:57;3.50;;;2.60;;
48042;SDS011;33988;47.992;8.820;2023-07-09T04:32:27;3.67;;;2.78;;
48042;SDS011;33988;47.992;8.820;2023-07-09T04:34:56;3.30;;;2.58;;
48042;SDS011;33988;47.992;8.820;2023-07-09T04:37:24;4.13;;;2.90;;
48042;SDS011;33988;47.992;8.820;2023-07-09T04:39:51;3.25;;;2.55;;
48042;SDS011;33988;47.992;8.820;2023-07-09T04:42:22;4.43;;;2.97;;
48042;SDS011;33988;47.992;8.820;2023-07-09T04:44:52;3.83;;;2.67;;
48042;SDS011;33988;47.992;8.820;2023-07-09T04:47:19;4.72;;;2.95;;
48042;SDS011;33988;47.992;8.820;2023-07-09T04:49:48;4.97;;;3.22;;
48042;SDS011;33988;47.992;8.820;2023-07-09T04:52:15;3.65;;;2.95;;
48042;SDS011;33988;47.992;8.820;2023-07-09T04:54:42;6.32;;;3.22;;
48042;SDS011;33988;47.992;8.820;2023-07-09T04:57:19;3.85;;;3.03;;
48042;SDS011;33988;47.992;8.820;2023-07-09T04:59:46;9.32;;;3.28;;
48042;SDS011;33988;47.992;8.820;2023-07-09T05:02:13;3.45;;;2.80;;
48042;SDS011;33988;47.992;8.820;2023-07-09T05:04:40;4.85;;;2.67;;
48042;SDS011;33988;47.992;8.820;2023-07-09T05:07:07;3.78;;;3.05;;
48042;SDS011;33988;47.992;8.820;2023-07-09T05:09:35;4.63;;;3.55;;
48042;SDS011;33988;47.992;8.820;2023-07-09T05:12:02;3.97;;;2.85;;
48042;SDS011;33988;47.992;8.820;2023-07-09T05:14:29;3.72;;;2.63;;
48042;SDS011;33988;47.992;8.820;2023-07-09T05:16:58;3.65;;;2.83;;
48042;SDS011;33988;47.992;8.820;2023-07-09T05:19:25;3.15;;;2.80;;
48042;SDS011;33988;47.992;8.820;2023-07-09T05:21:52;3.97;;;3.17;;
48042;SDS011;33988;47.992;8.820;2023-07-09T05:24:19;4.35;;;2.90;;
48042;SDS011;33988;47.992;8.820;2023-07-09T05:26:46;3.85;;;2.97;;
48042;SDS011;33988;47.992;8.820;2023-07-09T05:29:16;5.38;;;2.92;;
48042;SDS011;33988;47.992;8.820;2023-07-09T05:34:14;3.05;;;2.53;;
48042;SDS011;33988;47.992;8.820;2023-07-09T05:36:41;3.80;;;2.60;;
48042;SDS011;33988;47.992;8.820;2023-07-09T05:39:08;3.30;;;2.50;;
48042;SDS011;33988;47.992;8.820;2023-07-09T05:41:40;3.90;;;2.97;;
48042;SDS011;33988;47.992;8.820;2023-07-09T05:44:09;3.95;;;2.85;;
48042;SDS011;33988;47.992;8.820;2023-07-09T05:46:36;5.30;;;3.15;;
48042;SDS011;33988;47.992;8.820;2023-07-09T05:49:04;3.90;;;2.97;;
48042;SDS011;33988;47.992;8.820;2023-07-09T05:51:37;4.63;;;3.22;;
48042;SDS011;33988;47.992;8.820;2023-07-09T05:54:06;4.32;;;3.08;;
48042;SDS011;33988;47.992;8.820;2023-07-09T05:56:33;4.53;;;3.05;;
48042;SDS011;33988;47.992;8.820;2023-07-09T05:59:00;6.07;;;3.10;;
48042;SDS011;33988;47.992;8.820;2023-07-09T06:01:27;5.10;;;3.10;;
48042;SDS011;33988;47.992;8.820;2023-07-09T06:03:54;3.30;;;2.63;;
48042;SDS011;33988;47.992;8.820;2023-07-09T06:06:25;3.83;;;2.75;;
48042;SDS011;33988;47.992;8.820;2023-07-09T06:08:54;5.55;;;3.28;;
48042;SDS011;33988;47.992;8.820;2023-07-09T06:11:21;5.72;;;3.38;;
48042;SDS011;33988;47.992;8.820;2023-07-09T06:13:49;4.07;;;2.80;;
48042;SDS011;33988;47.992;8.820;2023-07-09T06:18:46;4.15;;;3.20;;
48042;SDS011;33988;47.992;8.820;2023-07-09T06:21:16;4.35;;;2.67;;
48042;SDS011;33988;47.992;8.820;2023-07-09T06:23:43;5.05;;;2.95;;
48042;SDS011;33988;47.992;8.820;2023-07-09T06:26:11;4.10;;;2.88;;
48042;SDS011;33988;47.992;8.820;2023-07-09T06:28:39;4.45;;;3.15;;
48042;SDS011;33988;47.992;8.820;2023-07-09T06:31:06;3.33;;;2.83;;
48042;SDS011;33988;47.992;8.820;2023-07-09T06:33:33;3.63;;;3.00;;
48042;SDS011;33988;47.992;8.820;2023-07-09T06:36:00;5.20;;;3.35;;
48042;SDS011;33988;47.992;8.820;2023-07-09T06:38:29;3.65;;;2.60;;
48042;SDS011;33988;47.992;8.820;2023-07-09T06:40:57;3.95;;;3.28;;
48042;SDS011;33988;47.992;8.820;2023-07-09T06:43:26;3.88;;;3.05;;
48042;SDS011;33988;47.992;8.820;2023-07-09T06:45:54;4.10;;;3.00;;
48042;SDS011;33988;47.992;8.820;2023-07-09T06:48:25;4.85;;;3.30;;
48042;SDS011;33988;47.992;8.820;2023-07-09T06:50:54;4.43;;;3.10;;
48042;SDS011;33988;47.992;8.820;2023-07-09T06:53:23;3.92;;;3.22;;
48042;SDS011;33988;47.992;8.820;2023-07-09T06:55:51;3.42;;;2.95;;
48042;SDS011;33988;47.992;8.820;2023-07-09T06:58:25;4.03;;;2.97;;
48042;SDS011;33988;47.992;8.820;2023-07-09T07:01:03;3.45;;;2.80;;
48042;SDS011;33988;47.992;8.820;2023-07-09T07:03:31;3.38;;;2.55;;
48042;SDS011;33988;47.992;8.820;2023-07-09T07:06:00;5.13;;;3.25;;
48042;SDS011;33988;47.992;8.820;2023-07-09T07:08:29;3.85;;;2.75;;
48042;SDS011;33988;47.992;8.820;2023-07-09T07:10:56;3.38;;;2.58;;
48042;SDS011;33988;47.992;8.820;2023-07-09T07:13:29;3.47;;;2.88;;
48042;SDS011;33988;47.992;8.820;2023-07-09T07:16:11;4.25;;;2.80;;
48042;SDS011;33988;47.992;8.820;2023-07-09T07:18:38;3.33;;;2.78;;
48042;SDS011;33988;47.992;8.820;2023-07-09T07:21:06;2.83;;;2.45;;
48042;SDS011;33988;47.992;8.820;2023-07-09T07:23:35;6.07;;;3.13;;
48042;SDS011;33988;47.992;8.820;2023-07-09T07:26:05;2.47;;;2.28;;
48042;SDS011;33988;47.992;8.820;2023-07-09T07:28:34;3.22;;;2.50;;
48042;SDS011;33988;47.992;8.820;2023-07-09T07:31:02;2.22;;;2.03;;
48042;SDS011;33988;47.992;8.820;2023-07-09T07:33:35;3.00;;;2.38;;
48042;SDS011;33988;47.992;8.820;2023-07-09T07:36:04;3.10;;;2.20;;
48042;SDS011;33988;47.992;8.820;2023-07-09T07:38:52;3.00;;;2.17;;
48042;SDS011;33988;47.992;8.820;2023-07-09T07:41:19;3.05;;;2.38;;
48042;SDS011;33988;47.992;8.820;2023-07-09T07:43:46;2.85;;;2.30;;
48042;SDS011;33988;47.992;8.820;2023-07-09T07:46:16;4.20;;;2.63;;
48042;SDS011;33988;47.992;8.820;2023-07-09T07:48:43;2.70;;;2.45;;
48042;SDS011;33988;47.992;8.820;2023-07-09T07:51:10;2.53;;;2.30;;
48042;SDS011;33988;47.992;8.820;2023-07-09T07:53:38;2.67;;;2.42;;
48042;SDS011;33988;47.992;8.820;2023-07-09T07:56:07;4.10;;;2.97;;
48042;SDS011;33988;47.992;8.820;2023-07-09T07:58:39;3.08;;;2.78;;
48042;SDS011;33988;47.992;8.820;2023-07-09T08:01:06;3.08;;;2.78;;
48042;SDS011;33988;47.992;8.820;2023-07-09T08:03:33;4.22;;;2.80;;
48042;SDS011;33988;47.992;8.820;2023-07-09T08:06:02;3.10;;;2.80;;
48042;SDS011;33988;47.992;8.820;2023-07-09T08:08:30;3.03;;;2.53;;
48042;SDS011;33988;47.992;8.820;2023-07-09T08:11:01;5.97;;;2.75;;
48042;SDS011;33988;47.992;8.820;2023-07-09T08:13:36;3.15;;;2.70;;
48042;SDS011;33988;47.992;8.820;2023-07-09T08:16:07;3.63;;;2.60;;
48042;SDS011;33988;47.992;8.820;2023-07-09T08:18:35;3.15;;;2.70;;
48042;SDS011;33988;47.992;8.820;2023-07-09T08:21:03;4.63;;;2.85;;
48042;SDS011;33988;47.992;8.820;2023-07-09T08:23:30;2.58;;;2.35;;
48042;SDS011;33988;47.992;8.820;2023-07-09T08:26:00;3.67;;;2.42;;
48042;SDS011;33988;47.992;8.820;2023-07-09T08:28:30;3.70;;;2.70;;
48042;SDS011;33988;47.992;8.820;2023-07-09T08:30:57;2.80;;;2.53;;
48042;SDS011;33988;47.992;8.820;2023-07-09T08:33:28;3.70;;;2.67;;
48042;SDS011;33988;47.992;8.820;2023-07-09T08:35:55;2.90;;;2.42;;
48042;SDS011;33988;47.992;8.820;2023-07-09T08:38:22;2.97;;;2.33;;
48042;SDS011;33988;47.992;8.820;2023-07-09T08:40:54;3.40;;;2.63;;
48042;SDS011;33988;47.992;8.820;2023-07-09T08:43:46;3.03;;;2.50;;
48042;SDS011;33988;47.992;8.820;2023-07-09T08:49:45;3.23;;;2.50;;
48042;SDS011;33988;47.992;8.820;2023-07-09T08:52:30;3.90;;;2.53;;
48042;SDS011;33988;47.992;8.820;2023-07-09T08:55:06;4.40;;;2.10;;
48042;SDS011;33988;47.992;8.820;2023-07-09T08:57:43;2.92;;;2.30;;
48042;SDS011;33988;47.992;8.820;2023-07-09T09:00:18;3.13;;;2.65;;
48042;SDS011;33988;47.992;8.820;2023-07-09T09:02:56;3.38;;;2.45;;
48042;SDS011;33988;47.992;8.820;2023-07-09T09:05:29;3.17;;;2.20;;
48042;SDS011;33988;47.992;8.820;2023-07-09T09:08:04;4.50;;;2.17;;
48042;SDS011;33988;47.992;8.820;2023-07-09T09:10:46;2.47;;;2.05;;
48042;SDS011;33988;47.992;8.820;2023-07-09T09:13:26;3.03;;;2.38;;
48042;SDS011;33988;47.992;8.820;2023-07-09T09:15:56;4.47;;;2.38;;
48042;SDS011;33988;47.992;8.820;2023-07-09T09:18:33;2.97;;;2.17;;
48042;SDS011;33988;47.992;8.820;2023-07-09T09:23:52;2.35;;;2.15;;
48042;SDS011;33988;47.992;8.820;2023-07-09T09:26:34;2.22;;;1.85;;
48042;SDS011;33988;47.992;8.820;2023-07-09T09:29:11;2.47;;;2.25;;
48042;SDS011;33988;47.992;8.820;2023-07-09T09:31:43;2.90;;;2.40;;
48042;SDS011;33988;47.992;8.820;2023-07-09T09:34:24;3.05;;;2.47;;
48042;SDS011;33988;47.992;8.820;2023-07-09T09:36:55;3.35;;;2.40;;
48042;SDS011;33988;47.992;8.820;2023-07-09T09:39:25;3.50;;;2.42;;
48042;SDS011;33988;47.992;8.820;2023-07-09T09:41:56;3.15;;;2.50;;
48042;SDS011;33988;47.992;8.820;2023-07-09T09:44:26;2.60;;;2.10;;
48042;SDS011;33988;47.992;8.820;2023-07-09T09:46:58;2.28;;;2.08;;
48042;SDS011;33988;47.992;8.820;2023-07-09T09:49:26;3.00;;;2.13;;
48042;SDS011;33988;47.992;8.820;2023-07-09T09:51:54;2.92;;;2.30;;
48042;SDS011;33988;47.992;8.820;2023-07-09T09:54:27;5.70;;;2.30;;
48042;SDS011;33988;47.992;8.820;2023-07-09T09:56:57;2.72;;;2.25;;
48042;SDS011;33988;47.992;8.820;2023-07-09T09:59:27;2.47;;;1.73;;
48042;SDS011;33988;47.992;8.820;2023-07-09T10:02:02;2.83;;;2.17;;
48042;SDS011;33988;47.992;8.820;2023-07-09T10:04:46;4.95;;;2.30;;
48042;SDS011;33988;47.992;8.820;2023-07-09T10:10:03;5.18;;;2.25;;
48042;SDS011;33988;47.992;8.820;2023-07-09T10:12:41;3.95;;;2.45;;
48042;SDS011;33988;47.992;8.820;2023-07-09T10:21:56;2.15;;;1.83;;
48042;SDS011;33988;47.992;8.820;2023-07-09T10:24:38;3.78;;;2.10;;
48042;SDS011;33988;47.992;8.820;2023-07-09T10:27:19;2.58;;;1.98;;
48042;SDS011;33988;47.992;8.820;2023-07-09T10:40:41;4.07;;;2.70;;
48042;SDS011;33988;47.992;8.820;2023-07-09T10:43:19;3.08;;;2.38;;
48042;SDS011;33988;47.992;8.820;2023-07-09T10:46:01;2.95;;;1.95;;
48042;SDS011;33988;47.992;8.820;2023-07-09T10:48:41;2.97;;;1.90;;
48042;SDS011;33988;47.992;8.820;2023-07-09T10:54:00;5.57;;;3.60;;
48042;SDS011;33988;47.992;8.820;2023-07-09T10:57:17;4.97;;;2.70;;
48042;SDS011;33988;47.992;8.820;2023-07-09T11:00:00;3.22;;;2.40;;
48042;SDS011;33988;47.992;8.820;2023-07-09T11:07:36;2.22;;;1.90;;
48042;SDS011;33988;47.992;8.820;2023-07-09T11:13:00;3.92;;;2.38;;
48042;SDS011;33988;47.992;8.820;2023-07-09T11:15:41;4.68;;;2.03;;
48042;SDS011;33988;47.992;8.820;2023-07-09T11:18:22;3.33;;;2.20;;
48042;SDS011;33988;47.992;8.820;2023-07-09T11:21:40;2.13;;;1.92;;
48042;SDS011;33988;47.992;8.820;2023-07-09T11:23:45;3.15;;;2.30;;
48042;SDS011;33988;47.992;8.820;2023-07-09T11:26:23;6.53;;;2.17;;
48042;SDS011;33988;47.992;8.820;2023-07-09T11:29:06;2.72;;;2.05;;
48042;SDS011;33988;47.992;8.820;2023-07-09T11:31:44;2.13;;;1.80;;
48042;SDS011;33988;47.992;8.820;2023-07-09T11:34:19;3.47;;;1.90;;
48042;SDS011;33988;47.992;8.820;2023-07-09T11:39:31;3.47;;;1.88;;
48042;SDS011;33988;47.992;8.820;2023-07-09T11:42:22;2.25;;;1.90;;
48042;SDS011;33988;47.992;8.820;2023-07-09T11:52:56;3.15;;;1.90;;
48042;SDS011;33988;47.992;8.820;2023-07-09T11:55:43;2.90;;;1.90;;
48042;SDS011;33988;47.992;8.820;2023-07-09T11:58:16;3.92;;;2.35;;
48042;SDS011;33988;47.992;8.820;2023-07-09T12:00:46;3.58;;;2.30;;
48042;SDS011;33988;47.992;8.820;2023-07-09T12:03:15;3.53;;;2.00;;
48042;SDS011;33988;47.992;8.820;2023-07-09T12:05:51;2.55;;;2.00;;
48042;SDS011;33988;47.992;8.820;2023-07-09T12:08:36;3.83;;;2.10;;
48042;SDS011;33988;47.992;8.820;2023-07-09T12:11:06;2.60;;;1.83;;
48042;SDS011;33988;47.992;8.820;2023-07-09T12:13:51;3.80;;;1.90;;
48042;SDS011;33988;47.992;8.820;2023-07-09T12:16:22;2.45;;;2.15;;
48042;SDS011;33988;47.992;8.820;2023-07-09T12:19:03;3.60;;;2.08;;
48042;SDS011;33988;47.992;8.820;2023-07-09T12:21:30;3.40;;;2.17;;
48042;SDS011;33988;47.992;8.820;2023-07-09T12:24:12;2.58;;;1.80;;
48042;SDS011;33988;47.992;8.820;2023-07-09T12:27:00;2.90;;;2.38;;
48042;SDS011;33988;47.992;8.820;2023-07-09T12:32:15;2.33;;;1.90;;
48042;SDS011;33988;47.992;8.820;2023-07-09T12:34:47;3.45;;;2.00;;
48042;SDS011;33988;47.992;8.820;2023-07-09T12:37:16;2.30;;;1.80;;
48042;SDS011;33988;47.992;8.820;2023-07-09T12:39:47;3.65;;;2.50;;
48042;SDS011;33988;47.992;8.820;2023-07-09T12:42:20;3.83;;;2.25;;
48042;SDS011;33988;47.992;8.820;2023-07-09T12:45:00;3.38;;;2.00;;
48042;SDS011;33988;47.992;8.820;2023-07-09T12:47:27;2.47;;;1.90;;
48042;SDS011;33988;47.992;8.820;2023-07-09T12:50:17;3.22;;;2.10;;
48042;SDS011;33988;47.992;8.820;2023-07-09T12:52:53;1.92;;;1.52;;
48042;SDS011;33988;47.992;8.820;2023-07-09T12:55:38;3.13;;;1.83;;
48042;SDS011;33988;47.992;8.820;2023-07-09T12:58:09;2.85;;;2.03;;
48042;SDS011;33988;47.992;8.820;2023-07-09T13:00:49;3.25;;;2.13;;
48042;SDS011;33988;47.992;8.820;2023-07-09T13:03:20;4.80;;;2.08;;
48042;SDS011;33988;47.992;8.820;2023-07-09T13:05:57;3.42;;;2.13;;
48042;SDS011;33988;47.992;8.820;2023-07-09T13:08:28;3.03;;;2.20;;
48042;SDS011;33988;47.992;8.820;2023-07-09T13:11:16;3.42;;;2.05;;
48042;SDS011;33988;47.992;8.820;2023-07-09T13:13:56;2.67;;;1.83;;
48042;SDS011;33988;47.992;8.820;2023-07-09T13:16:30;2.55;;;1.70;;
48042;SDS011;33988;47.992;8.820;2023-07-09T13:19:04;4.75;;;2.17;;
48042;SDS011;33988;47.992;8.820;2023-07-09T13:21:39;2.80;;;2.10;;
48042;SDS011;33988;47.992;8.820;2023-07-09T13:24:25;2.70;;;1.80;;
48042;SDS011;33988;47.992;8.820;2023-07-09T13:26:56;3.55;;;1.83;;
48042;SDS011;33988;47.992;8.820;2023-07-09T13:29:26;2.88;;;1.80;;
48042;SDS011;33988;47.992;8.820;2023-07-09T13:31:53;2.17;;;1.77;;
48042;SDS011;33988;47.992;8.820;2023-07-09T13:34:25;6.40;;;2.15;;
48042;SDS011;33988;47.992;8.820;2023-07-09T13:36:54;2.75;;;2.22;;
48042;SDS011;33988;47.992;8.820;2023-07-09T13:39:27;2.55;;;2.10;;
48042;SDS011;33988;47.992;8.820;2023-07-09T13:41:54;2.92;;;1.65;;
48042;SDS011;33988;47.992;8.820;2023-07-09T13:44:26;2.72;;;1.70;;
48042;SDS011;33988;47.992;8.820;2023-07-09T13:46:58;2.65;;;2.17;;
48042;SDS011;33988;47.992;8.820;2023-07-09T13:49:27;2.72;;;2.13;;
48042;SDS011;33988;47.992;8.820;2023-07-09T13:51:58;2.42;;;1.67;;
48042;SDS011;33988;47.992;8.820;2023-07-09T13:54:27;3.08;;;1.90;;
48042;SDS011;33988;47.992;8.820;2023-07-09T13:57:02;3.95;;;2.65;;
48042;SDS011;33988;47.992;8.820;2023-07-09T13:59:37;5.22;;;2.30;;
48042;SDS011;33988;47.992;8.820;2023-07-09T14:02:29;2.58;;;2.05;;
48042;SDS011;33988;47.992;8.820;2023-07-09T14:05:02;2.83;;;2.53;;
48042;SDS011;33988;47.992;8.820;2023-07-09T14:07:33;4.30;;;2.60;;
48042;SDS011;33988;47.992;8.820;2023-07-09T14:10:12;3.40;;;2.35;;
48042;SDS011;33988;47.992;8.820;2023-07-09T14:12:45;2.78;;;2.28;;
48042;SDS011;33988;47.992;8.820;2023-07-09T14:15:14;2.42;;;2.22;;
48042;SDS011;33988;47.992;8.820;2023-07-09T14:17:47;3.30;;;2.25;;
48042;SDS011;33988;47.992;8.820;2023-07-09T14:20:15;4.97;;;2.55;;
48042;SDS011;33988;47.992;8.820;2023-07-09T14:22:43;3.47;;;2.22;;
48042;SDS011;33988;47.992;8.820;2023-07-09T14:25:21;6.53;;;2.22;;
48042;SDS011;33988;47.992;8.820;2023-07-09T14:27:50;4.20;;;2.30;;
48042;SDS011;33988;47.992;8.820;2023-07-09T14:30:20;2.72;;;2.10;;
48042;SDS011;33988;47.992;8.820;2023-07-09T14:32:54;2.97;;;2.20;;
48042;SDS011;33988;47.992;8.820;2023-07-09T14:35:24;4.20;;;2.92;;
48042;SDS011;33988;47.992;8.820;2023-07-09T14:37:58;5.82;;;2.13;;
48042;SDS011;33988;47.992;8.820;2023-07-09T14:40:27;3.55;;;2.45;;
48042;SDS011;33988;47.992;8.820;2023-07-09T14:42:55;3.50;;;2.40;;
48042;SDS011;33988;47.992;8.820;2023-07-09T14:45:23;4.35;;;2.50;;
48042;SDS011;33988;47.992;8.820;2023-07-09T14:47:54;3.45;;;2.28;;
48042;SDS011;33988;47.992;8.820;2023-07-09T14:50:29;4.05;;;2.10;;
48042;SDS011;33988;47.992;8.820;2023-07-09T14:52:56;4.32;;;2.88;;
48042;SDS011;33988;47.992;8.820;2023-07-09T14:55:23;4.75;;;2.33;;
48042;SDS011;33988;47.992;8.820;2023-07-09T14:57:51;2.67;;;1.90;;
48042;SDS011;33988;47.992;8.820;2023-07-09T15:00:21;2.35;;;1.98;;
48042;SDS011;33988;47.992;8.820;2023-07-09T15:02:50;2.45;;;2.05;;
48042;SDS011;33988;47.992;8.820;2023-07-09T15:05:21;2.83;;;2.17;;
48042;SDS011;33988;47.992;8.820;2023-07-09T15:07:52;2.80;;;2.15;;
48042;SDS011;33988;47.992;8.820;2023-07-09T15:10:22;3.35;;;1.88;;
48042;SDS011;33988;47.992;8.820;2023-07-09T15:12:55;5.72;;;2.17;;
48042;SDS011;33988;47.992;8.820;2023-07-09T15:15:24;2.33;;;2.13;;
48042;SDS011;33988;47.992;8.820;2023-07-09T15:17:56;2.80;;;2.20;;
48042;SDS011;33988;47.992;8.820;2023-07-09T15:20:29;2.67;;;1.73;;
48042;SDS011;33988;47.992;8.820;2023-07-09T15:23:00;5.80;;;2.38;;
48042;SDS011;33988;47.992;8.820;2023-07-09T15:25:27;3.53;;;2.20;;
48042;SDS011;33988;47.992;8.820;2023-07-09T15:27:57;3.90;;;2.77;;
48042;SDS011;33988;47.992;8.820;2023-07-09T15:30:29;2.67;;;1.98;;
48042;SDS011;33988;47.992;8.820;2023-07-09T15:33:03;3.17;;;2.30;;
48042;SDS011;33988;47.992;8.820;2023-07-09T15:35:35;4.28;;;2.38;;
48042;SDS011;33988;47.992;8.820;2023-07-09T15:40:50;4.53;;;2.55;;
48042;SDS011;33988;47.992;8.820;2023-07-09T15:43:17;3.22;;;2.20;;
48042;SDS011;33988;47.992;8.820;2023-07-09T15:45:45;3.40;;;2.47;;
48042;SDS011;33988;47.992;8.820;2023-07-09T15:50:55;3.60;;;2.40;;
48042;SDS011;33988;47.992;8.820;2023-07-09T15:53:25;2.80;;;2.13;;
48042;SDS011;33988;47.992;8.820;2023-07-09T15:55:54;3.20;;;2.08;;
48042;SDS011;33988;47.992;8.820;2023-07-09T15:58:36;2.45;;;2.08;;
48042;SDS011;33988;47.992;8.820;2023-07-09T16:01:11;3.40;;;2.08;;
48042;SDS011;33988;47.992;8.820;2023-07-09T16:03:45;2.38;;;2.08;;
48042;SDS011;33988;47.992;8.820;2023-07-09T16:06:16;3.60;;;2.30;;
48042;SDS011;33988;47.992;8.820;2023-07-09T16:08:44;5.80;;;2.15;;
48042;SDS011;33988;47.992;8.820;2023-07-09T16:11:16;3.33;;;2.50;;
48042;SDS011;33988;47.992;8.820;2023-07-09T16:13:49;3.05;;;2.08;;
48042;SDS011;33988;47.992;8.820;2023-07-09T16:16:21;5.05;;;2.13;;
48042;SDS011;33988;47.992;8.820;2023-07-09T16:18:50;3.92;;;2.20;;
48042;SDS011;33988;47.992;8.820;2023-07-09T16:21:23;3.00;;;1.97;;
48042;SDS011;33988;47.992;8.820;2023-07-09T16:23:55;3.13;;;1.90;;